Jacksonville, New York
Current Conditions -  °F | °C
As of 11:23 AM on Wednesday 26 Nov 2014 (Local Time) from KITH Reporting Station
Light Snow Light Snow  
Wind Chill: 34°   Ceiling: 2000
Heat Index: 34°   Visibility: 2mi
Dew Point: 27°   Wind: 3mph
Humidity: 75%   Direction: 70°ENE
Pressure: 30.14"   Gusts: NA
Location:  42.5°N, 76.6°W
Report Text: KITH 261623Z 07003KT 2SM -SN OVC020 01/M03 A3014 RMK AO2 RAB16E18UPB18E21SNB21 P0000
Loading
Personal Weather Stations






























Interactive Weather Map New forecast layout! Learn more

10-Day Weather Forecast

Advertisements
Track Severe Weather on mobile